createdAt,value
2022-08-24T00:01:23.623Z,4.82
2022-08-24T00:03:55.154Z,5.50
2022-08-24T00:06:24.047Z,5.38
2022-08-24T00:08:52.386Z,5.55
2022-08-24T00:11:19.770Z,6.00
2022-08-24T00:13:47.355Z,3.97
2022-08-24T00:16:15.293Z,4.55
2022-08-24T00:18:41.934Z,5.15
2022-08-24T00:21:09.519Z,3.80
2022-08-24T00:23:36.196Z,4.53
2022-08-24T00:26:04.226Z,4.55
2022-08-24T00:28:31.260Z,4.65
2022-08-24T00:30:58.252Z,4.68
2022-08-24T00:33:25.034Z,6.32
2022-08-24T00:35:51.399Z,4.85
2022-08-24T00:38:17.808Z,5.20
2022-08-24T00:40:48.067Z,5.88
2022-08-24T00:43:20.061Z,4.90
2022-08-24T00:45:55.229Z,5.07
2022-08-24T00:48:26.453Z,4.85
2022-08-24T00:51:04.608Z,5.47
2022-08-24T00:53:36.210Z,4.68
2022-08-24T00:56:12.169Z,5.53
2022-08-24T00:58:47.748Z,5.13
2022-08-24T01:01:26.124Z,4.25
2022-08-24T01:03:56.847Z,5.55
2022-08-24T01:06:24.116Z,7.60
2022-08-24T01:08:56.328Z,4.65
2022-08-24T01:11:26.669Z,4.65
2022-08-24T01:13:54.670Z,6.35
2022-08-24T01:16:40.981Z,5.18
2022-08-24T01:19:56.935Z,5.07
2022-08-24T01:22:52.212Z,4.65
2022-08-24T01:25:19.952Z,4.43
2022-08-24T01:27:50.083Z,4.40
2022-08-24T01:30:18.677Z,3.65
2022-08-24T01:33:00.846Z,4.95
2022-08-24T01:35:29.147Z,5.63
2022-08-24T01:38:00.436Z,4.35
2022-08-24T01:40:34.571Z,4.00
2022-08-24T01:43:02.005Z,4.32
2022-08-24T01:45:28.363Z,4.30
2022-08-24T01:47:54.930Z,5.22
2022-08-24T01:50:22.338Z,5.07
2022-08-24T01:53:05.110Z,4.03
2022-08-24T01:55:33.617Z,4.28
2022-08-24T01:58:01.031Z,4.18
2022-08-24T02:00:27.759Z,5.80
2022-08-24T02:02:56.891Z,4.35
2022-08-24T02:05:24.267Z,4.90
2022-08-24T02:07:51.458Z,4.00
2022-08-24T02:10:19.372Z,6.40
2022-08-24T02:12:57.606Z,4.93
2022-08-24T02:15:40.649Z,4.43
2022-08-24T02:18:15.147Z,4.55
2022-08-24T02:20:43.362Z,4.35
2022-08-24T02:23:10.013Z,4.05
2022-08-24T02:25:36.974Z,5.13
2022-08-24T02:28:04.539Z,4.80
2022-08-24T02:30:31.623Z,4.82
2022-08-24T02:32:58.939Z,4.43
2022-08-24T02:35:27.188Z,4.75
2022-08-24T02:37:53.595Z,4.07
2022-08-24T02:40:20.897Z,4.43
2022-08-24T02:42:48.445Z,4.32
2022-08-24T02:45:15.115Z,4.60
2022-08-24T02:47:41.670Z,4.07
2022-08-24T02:50:11.914Z,6.72
2022-08-24T02:52:39.433Z,4.07
2022-08-24T02:55:08.211Z,5.25
2022-08-24T02:57:34.667Z,3.75
2022-08-24T03:00:10.916Z,4.25
2022-08-24T03:02:38.213Z,4.22
2022-08-24T03:05:05.182Z,5.10
2022-08-24T03:07:32.071Z,4.57
2022-08-24T03:09:58.922Z,4.68
2022-08-24T03:12:25.271Z,5.50
2022-08-24T03:14:52.059Z,4.15
2022-08-24T03:17:19.134Z,4.32
2022-08-24T03:19:45.903Z,3.67
2022-08-24T03:22:13.201Z,5.40
2022-08-24T03:24:39.555Z,4.75
2022-08-24T03:27:06.630Z,6.78
2022-08-24T03:29:35.243Z,4.38
2022-08-24T03:32:02.416Z,4.18
2022-08-24T03:34:29.346Z,4.72
2022-08-24T03:36:56.156Z,4.68
2022-08-24T03:39:22.508Z,6.30
2022-08-24T03:41:48.899Z,4.28
2022-08-24T03:44:17.001Z,4.65
2022-08-24T03:46:46.338Z,6.25
2022-08-24T03:49:13.459Z,5.55
2022-08-24T03:51:40.499Z,4.72
2022-08-24T03:54:09.308Z,4.30
2022-08-24T03:56:35.694Z,5.28
2022-08-24T03:59:02.574Z,4.03
2022-08-24T04:01:29.091Z,4.82
2022-08-24T04:03:55.536Z,4.78
2022-08-24T04:06:23.395Z,4.38
2022-08-24T04:08:51.787Z,4.45
2022-08-24T04:11:21.397Z,4.22
2022-08-24T04:13:48.395Z,6.28
2022-08-24T04:16:17.405Z,4.15
2022-08-24T04:18:44.491Z,5.03
2022-08-24T04:21:21.404Z,5.13
2022-08-24T04:23:48.835Z,4.22
2022-08-24T04:26:43.991Z,4.75
2022-08-24T04:29:08.047Z,4.38
2022-08-24T04:31:36.550Z,4.35
2022-08-24T04:34:03.544Z,4.32
2022-08-24T04:36:30.365Z,4.97
2022-08-24T04:38:56.712Z,3.75
2022-08-24T04:41:30.955Z,5.20
2022-08-24T04:43:59.240Z,5.20
2022-08-24T04:46:25.871Z,5.72
2022-08-24T04:48:52.361Z,4.65
2022-08-24T04:51:20.218Z,4.80
2022-08-24T04:53:48.262Z,4.50
2022-08-24T04:56:17.781Z,5.22
2022-08-24T04:58:47.691Z,4.85
2022-08-24T05:01:19.354Z,4.55
2022-08-24T05:03:49.251Z,4.78
2022-08-24T05:06:17.242Z,4.40
2022-08-24T05:08:46.583Z,4.70
2022-08-24T05:11:14.756Z,4.18
2022-08-24T05:13:41.299Z,4.68
2022-08-24T05:16:10.786Z,4.22
2022-08-24T05:18:38.239Z,4.20
2022-08-24T05:21:10.404Z,5.40
2022-08-24T05:23:38.979Z,4.80
2022-08-24T05:26:13.579Z,4.90
2022-08-24T05:28:40.489Z,5.10
2022-08-24T05:31:17.103Z,8.65
2022-08-24T05:33:43.835Z,4.47
2022-08-24T05:36:24.650Z,5.32
2022-08-24T05:38:55.270Z,4.07
2022-08-24T05:41:22.363Z,4.70
2022-08-24T05:43:49.420Z,4.47
2022-08-24T05:46:16.354Z,5.40
2022-08-24T05:48:43.155Z,4.47
2022-08-24T05:51:18.455Z,5.28
2022-08-24T05:53:45.143Z,4.70
2022-08-24T05:56:14.280Z,4.32
2022-08-24T05:58:41.288Z,4.28
2022-08-24T06:01:11.047Z,3.65
2022-08-24T06:03:38.651Z,4.72
2022-08-24T06:06:07.368Z,4.53
2022-08-24T06:08:41.523Z,5.15
2022-08-24T06:11:10.271Z,3.65
2022-08-24T06:13:36.733Z,3.20
2022-08-24T06:16:21.134Z,7.13
2022-08-24T06:21:19.211Z,7.38
2022-08-24T06:23:48.012Z,5.95
2022-08-24T06:26:34.293Z,6.68
2022-08-24T06:29:01.046Z,4.50
2022-08-24T06:31:27.906Z,5.32
2022-08-24T06:33:56.011Z,6.80
2022-08-24T06:36:22.836Z,8.93
2022-08-24T06:38:49.794Z,4.40
2022-08-24T06:41:17.197Z,5.13
2022-08-24T06:43:44.095Z,7.18
2022-08-24T06:46:10.541Z,5.10
2022-08-24T06:48:37.639Z,5.55
2022-08-24T06:51:10.150Z,4.80
2022-08-24T06:53:37.149Z,4.60
2022-08-24T06:56:04.972Z,4.35
2022-08-24T06:58:32.351Z,6.20
2022-08-24T07:00:59.287Z,4.82
2022-08-24T07:03:26.363Z,4.43
2022-08-24T07:05:55.807Z,5.85
2022-08-24T07:08:23.442Z,5.03
2022-08-24T07:10:50.204Z,7.55
2022-08-24T07:13:17.433Z,6.75
2022-08-24T07:15:44.543Z,7.43
2022-08-24T07:18:16.378Z,7.07
2022-08-24T07:20:44.380Z,5.88
2022-08-24T07:23:14.885Z,5.32
2022-08-24T07:25:44.878Z,6.47
2022-08-24T07:28:15.770Z,5.60
2022-08-24T07:30:43.294Z,7.68
2022-08-24T07:33:10.326Z,5.90
2022-08-24T07:35:38.963Z,6.18
2022-08-24T07:38:07.452Z,5.65
2022-08-24T07:40:55.872Z,7.07
2022-08-24T07:43:21.179Z,5.55
2022-08-24T07:45:49.239Z,5.78
2022-08-24T07:48:15.785Z,6.60
2022-08-24T07:50:42.608Z,5.40
2022-08-24T07:53:13.845Z,7.05
2022-08-24T07:55:43.861Z,5.00
2022-08-24T07:58:13.038Z,5.32
2022-08-24T08:00:39.420Z,6.05
2022-08-24T08:03:06.733Z,5.25
2022-08-24T08:05:38.969Z,5.88
2022-08-24T08:08:05.472Z,5.57
2022-08-24T08:10:35.846Z,4.82
2022-08-24T08:13:03.662Z,5.82
2022-08-24T08:15:31.621Z,6.45
2022-08-24T08:17:59.615Z,6.90
2022-08-24T08:20:26.068Z,6.15
2022-08-24T08:23:11.447Z,5.63
2022-08-24T08:25:38.391Z,4.78
2022-08-24T08:28:18.515Z,4.80
2022-08-24T08:30:53.744Z,7.85
2022-08-24T08:33:20.630Z,5.53
2022-08-24T08:35:49.471Z,6.68
2022-08-24T08:38:16.029Z,6.20
2022-08-24T08:40:45.350Z,4.90
2022-08-24T08:44:01.031Z,6.10
2022-08-24T08:46:30.012Z,5.57
2022-08-24T08:49:07.288Z,6.00
2022-08-24T08:51:43.773Z,6.38
2022-08-24T08:54:22.831Z,4.97
2022-08-24T08:57:16.737Z,6.85
2022-08-24T09:00:07.240Z,5.18
2022-08-24T09:03:00.071Z,6.38
2022-08-24T09:08:33.002Z,5.80
2022-08-24T09:11:26.459Z,6.85
2022-08-24T09:14:10.544Z,4.90
2022-08-24T09:16:46.669Z,5.57
2022-08-24T09:19:31.678Z,5.68
2022-08-24T09:22:16.418Z,3.63
2022-08-24T09:25:26.616Z,5.60
2022-08-24T09:28:34.189Z,4.28
2022-08-24T09:31:19.247Z,5.40
2022-08-24T09:34:06.740Z,5.70
2022-08-24T09:36:59.659Z,4.10
2022-08-24T09:39:49.159Z,3.95
2022-08-24T09:42:42.167Z,3.67
2022-08-24T09:45:39.060Z,3.90
2022-08-24T09:48:33.935Z,4.32
2022-08-24T09:51:26.773Z,4.13
2022-08-24T09:54:05.759Z,7.55
2022-08-24T09:57:12.394Z,4.82
2022-08-24T10:00:01.431Z,3.92
2022-08-24T10:03:03.250Z,4.30
2022-08-24T10:05:36.894Z,2.58
2022-08-24T10:08:19.389Z,3.78
2022-08-24T10:11:11.638Z,3.22
2022-08-24T10:14:09.558Z,5.05
2022-08-24T10:16:45.504Z,4.03
2022-08-24T10:19:31.014Z,5.00
2022-08-24T10:22:03.327Z,3.35
2022-08-24T10:24:43.490Z,3.20
2022-08-24T10:27:43.943Z,2.92
2022-08-24T10:30:42.162Z,2.28
2022-08-24T10:33:19.926Z,2.75
2022-08-24T10:36:08.247Z,3.10
2022-08-24T10:39:01.776Z,3.90
2022-08-24T10:42:06.139Z,5.28
2022-08-24T10:47:27.392Z,4.90
2022-08-24T10:50:09.044Z,3.97
2022-08-24T10:52:57.761Z,3.92
2022-08-24T10:55:31.024Z,3.67
2022-08-24T10:58:04.034Z,3.22
2022-08-24T11:00:30.930Z,3.97
2022-08-24T11:03:14.313Z,3.22
2022-08-24T11:05:58.838Z,5.43
2022-08-24T11:08:27.972Z,4.38
2022-08-24T11:11:11.192Z,4.28
2022-08-24T11:13:49.807Z,6.15
2022-08-24T11:16:26.792Z,4.43
2022-08-24T11:18:56.167Z,2.90
2022-08-24T11:21:46.200Z,3.33
2022-08-24T11:24:18.575Z,4.07
2022-08-24T11:27:08.242Z,2.65
2022-08-24T11:29:49.534Z,3.03
2022-08-24T11:32:57.582Z,3.33
2022-08-24T11:35:34.611Z,2.65
2022-08-24T11:38:17.561Z,2.95
2022-08-24T11:40:49.991Z,3.78
2022-08-24T11:43:48.686Z,2.55
2022-08-24T11:46:35.144Z,2.47
2022-08-24T11:49:24.026Z,2.83
2022-08-24T11:52:15.690Z,3.13
2022-08-24T11:54:51.480Z,2.38
2022-08-24T11:57:25.311Z,1.80
2022-08-24T12:00:14.200Z,2.80
2022-08-24T12:03:03.407Z,2.70
2022-08-24T12:05:52.940Z,3.63
2022-08-24T12:08:34.307Z,2.53
2022-08-24T12:11:15.553Z,1.98
2022-08-24T12:13:57.962Z,4.68
2022-08-24T12:16:39.331Z,2.33
2022-08-24T12:19:19.755Z,2.08
2022-08-24T12:21:51.675Z,2.55
2022-08-24T12:24:28.719Z,2.00
2022-08-24T12:27:04.150Z,2.83
2022-08-24T12:29:54.318Z,2.60
2022-08-24T12:32:40.983Z,3.75
2022-08-24T12:35:38.938Z,2.42
2022-08-24T12:38:21.493Z,3.03
2022-08-24T12:40:57.156Z,2.15
2022-08-24T12:43:34.912Z,3.50
2022-08-24T12:46:02.123Z,2.40
2022-08-24T12:48:37.509Z,2.45
2022-08-24T12:51:06.948Z,2.22
2022-08-24T12:54:02.358Z,2.78
2022-08-24T12:56:28.656Z,2.88
2022-08-24T12:59:31.651Z,1.90
2022-08-24T13:02:27.055Z,2.97
2022-08-24T13:04:54.250Z,2.15
2022-08-24T13:07:23.413Z,1.75
2022-08-24T13:09:53.160Z,2.15
2022-08-24T13:12:38.644Z,3.03
2022-08-24T13:15:23.538Z,3.00
2022-08-24T13:18:02.635Z,2.67
2022-08-24T13:20:38.847Z,2.17
2022-08-24T13:23:11.397Z,1.92
2022-08-24T13:25:42.760Z,2.15
2022-08-24T13:28:30.627Z,3.65
2022-08-24T13:31:15.995Z,2.30
2022-08-24T13:33:44.994Z,1.85
2022-08-24T13:36:38.792Z,1.73
2022-08-24T13:39:16.271Z,3.38
2022-08-24T13:42:02.490Z,2.85
2022-08-24T13:44:49.836Z,2.00
2022-08-24T13:47:20.107Z,2.13
2022-08-24T13:50:02.336Z,2.13
2022-08-24T13:52:57.211Z,2.63
2022-08-24T13:55:43.818Z,2.13
2022-08-24T13:58:17.951Z,2.85
2022-08-24T14:01:01.571Z,2.40
2022-08-24T14:03:56.605Z,3.90
2022-08-24T14:06:41.548Z,3.15
2022-08-24T14:09:13.331Z,2.55
2022-08-24T14:11:49.232Z,3.78
2022-08-24T14:14:50.916Z,1.83
2022-08-24T14:17:55.134Z,1.70
2022-08-24T14:20:28.435Z,2.20
2022-08-24T14:23:01.728Z,2.15
2022-08-24T14:25:33.614Z,2.67
2022-08-24T14:27:59.941Z,1.85
2022-08-24T14:30:26.707Z,2.20
2022-08-24T14:33:03.393Z,2.13
2022-08-24T14:35:36.707Z,1.58
2022-08-24T14:38:24.026Z,1.80
2022-08-24T14:40:58.907Z,2.20
2022-08-24T14:44:05.955Z,1.77
2022-08-24T14:47:16.805Z,6.75
2022-08-24T14:50:07.998Z,3.75
2022-08-24T14:52:56.051Z,4.20
2022-08-24T14:55:31.626Z,2.50
2022-08-24T14:58:11.538Z,1.73
2022-08-24T15:01:14.901Z,2.85
2022-08-24T15:03:47.591Z,3.72
2022-08-24T15:06:39.397Z,1.92
2022-08-24T15:09:18.575Z,2.28
2022-08-24T15:11:50.397Z,2.30
2022-08-24T15:14:24.104Z,3.17
2022-08-24T15:17:11.795Z,3.85
2022-08-24T15:20:02.389Z,2.25
2022-08-24T15:22:57.200Z,2.38
2022-08-24T15:25:44.753Z,4.20
2022-08-24T15:28:21.797Z,5.07
2022-08-24T15:31:00.800Z,2.05
2022-08-24T15:33:30.373Z,2.92
2022-08-24T15:36:18.011Z,2.85
2022-08-24T15:38:46.408Z,2.38
2022-08-24T15:41:42.196Z,2.67
2022-08-24T15:44:13.786Z,1.95
2022-08-24T15:46:52.106Z,2.63
2022-08-24T15:49:24.573Z,2.58
2022-08-24T15:51:58.168Z,3.10
2022-08-24T15:54:30.951Z,4.43
2022-08-24T15:57:18.749Z,3.30
2022-08-24T15:59:49.995Z,3.25
2022-08-24T16:02:33.894Z,3.97
2022-08-24T16:05:35.500Z,4.32
2022-08-24T16:08:01.809Z,3.88
2022-08-24T16:10:39.782Z,2.20
2022-08-24T16:13:08.933Z,1.92
2022-08-24T16:15:47.595Z,3.95
2022-08-24T16:18:15.288Z,3.08
2022-08-24T16:20:42.244Z,2.15
2022-08-24T16:23:14.478Z,2.42
2022-08-24T16:25:47.984Z,2.58
2022-08-24T16:28:23.670Z,2.92
2022-08-24T16:30:55.484Z,2.33
2022-08-24T16:33:45.200Z,3.13
2022-08-24T16:36:17.964Z,3.38
2022-08-24T16:38:51.546Z,2.17
2022-08-24T16:41:24.157Z,1.67
2022-08-24T16:43:51.636Z,2.28
2022-08-24T16:46:23.051Z,2.20
2022-08-24T16:48:49.586Z,2.20
2022-08-24T16:51:16.533Z,2.63
2022-08-24T16:53:42.908Z,3.55
2022-08-24T16:56:10.924Z,2.38
2022-08-24T16:58:40.582Z,2.20
2022-08-24T17:01:07.125Z,3.80
2022-08-24T17:03:33.847Z,6.22
2022-08-24T17:06:00.395Z,3.28
2022-08-24T17:08:27.942Z,2.42
2022-08-24T17:10:55.235Z,3.65
2022-08-24T17:13:46.280Z,1.85
2022-08-24T17:16:11.452Z,2.08
2022-08-24T17:18:39.205Z,1.83
2022-08-24T17:21:06.471Z,2.80
2022-08-24T17:23:33.559Z,2.33
2022-08-24T17:26:02.062Z,2.70
2022-08-24T17:28:29.188Z,2.42
2022-08-24T17:30:55.613Z,2.22
2022-08-24T17:33:21.992Z,2.80
2022-08-24T17:35:52.263Z,2.47
2022-08-24T17:38:18.645Z,3.60
2022-08-24T17:40:45.016Z,4.10
2022-08-24T17:43:11.699Z,2.75
2022-08-24T17:45:38.137Z,3.05
2022-08-24T17:48:04.747Z,2.88
2022-08-24T17:50:31.513Z,3.22
2022-08-24T17:53:00.522Z,2.80
2022-08-24T17:55:27.799Z,2.45
2022-08-24T17:57:54.922Z,3.75
2022-08-24T18:00:21.536Z,7.95
2022-08-24T18:02:47.899Z,2.65
2022-08-24T18:05:15.000Z,7.38
2022-08-24T18:07:53.600Z,3.45
2022-08-24T18:10:25.085Z,3.15
2022-08-24T18:12:51.576Z,5.78
2022-08-24T18:15:18.013Z,3.22
2022-08-24T18:17:50.264Z,2.30
2022-08-24T18:20:23.393Z,3.50
2022-08-24T18:22:52.786Z,2.50
2022-08-24T18:25:22.777Z,3.17
2022-08-24T18:27:52.470Z,2.55
2022-08-24T18:30:30.300Z,3.80
2022-08-24T18:32:58.442Z,2.83
2022-08-24T18:35:25.172Z,3.28
2022-08-24T18:37:51.664Z,3.47
2022-08-24T18:40:21.475Z,8.23
2022-08-24T18:42:50.620Z,5.47
2022-08-24T18:45:18.086Z,3.25
2022-08-24T18:47:44.494Z,4.80
2022-08-24T18:50:19.873Z,3.33
2022-08-24T18:52:46.360Z,3.17
2022-08-24T18:55:13.619Z,3.75
2022-08-24T18:57:40.325Z,2.05
2022-08-24T19:00:08.594Z,3.72
2022-08-24T19:02:35.788Z,2.78
2022-08-24T19:05:24.963Z,3.60
2022-08-24T19:07:54.284Z,3.45
2022-08-24T19:10:23.936Z,2.88
2022-08-24T19:12:54.979Z,2.58
2022-08-24T19:15:32.122Z,3.50
2022-08-24T19:18:07.359Z,3.33
2022-08-24T19:20:34.541Z,3.58
2022-08-24T19:23:08.464Z,2.88
2022-08-24T19:25:36.307Z,4.03
2022-08-24T19:28:04.015Z,2.70
2022-08-24T19:30:31.202Z,3.80
2022-08-24T19:32:58.539Z,2.55
2022-08-24T19:35:25.060Z,2.92
2022-08-24T19:37:52.394Z,3.90
2022-08-24T19:40:20.937Z,3.08
2022-08-24T19:42:50.677Z,4.82
2022-08-24T19:45:40.312Z,3.30
2022-08-24T19:48:06.779Z,2.30
2022-08-24T19:50:35.861Z,2.60
2022-08-24T19:53:05.163Z,2.47
2022-08-24T19:55:32.581Z,4.30
2022-08-24T19:58:16.034Z,2.28
2022-08-24T20:00:50.551Z,4.35
2022-08-24T20:03:19.071Z,3.05
2022-08-24T20:05:45.675Z,3.42
2022-08-24T20:08:12.503Z,2.55
2022-08-24T20:10:39.284Z,2.75
2022-08-24T20:13:05.911Z,4.90
2022-08-24T20:15:32.681Z,6.28
2022-08-24T20:18:00.012Z,2.92
2022-08-24T20:20:28.427Z,2.55
2022-08-24T20:22:55.215Z,3.13
2022-08-24T20:25:22.203Z,3.95
2022-08-24T20:27:50.648Z,2.72
2022-08-24T20:30:22.375Z,2.88
2022-08-24T20:32:48.717Z,4.43
2022-08-24T20:35:15.152Z,2.70
2022-08-24T20:37:42.640Z,2.53
2022-08-24T20:40:12.899Z,3.58
2022-08-24T20:42:40.010Z,3.85
2022-08-24T20:45:07.186Z,2.75
2022-08-24T20:47:33.630Z,3.25
2022-08-24T20:50:00.767Z,3.40
2022-08-24T20:52:27.122Z,3.72
2022-08-24T20:54:53.465Z,3.35
2022-08-24T20:57:21.397Z,4.25
2022-08-24T20:59:47.774Z,2.67
2022-08-24T21:02:14.279Z,2.92
2022-08-24T21:04:41.010Z,2.65
2022-08-24T21:07:10.469Z,2.20
2022-08-24T21:09:36.911Z,3.67
2022-08-24T21:12:04.265Z,4.00
2022-08-24T21:14:30.687Z,3.15
2022-08-24T21:16:58.315Z,2.75
2022-08-24T21:19:25.311Z,3.17
2022-08-24T21:21:52.443Z,2.53
2022-08-24T21:24:18.782Z,2.20
2022-08-24T21:26:46.096Z,2.10
2022-08-24T21:29:12.464Z,3.10
2022-08-24T21:31:39.054Z,3.67
2022-08-24T21:34:24.883Z,2.70
2022-08-24T21:36:54.340Z,3.88
2022-08-24T21:39:20.999Z,6.55
2022-08-24T21:41:47.990Z,5.07
2022-08-24T21:44:14.357Z,4.40
2022-08-24T21:46:41.308Z,3.50
2022-08-24T21:49:11.894Z,3.13
2022-08-24T21:51:39.327Z,3.35
2022-08-24T21:54:05.744Z,2.22
2022-08-24T21:56:33.390Z,2.05
2022-08-24T21:59:00.286Z,3.05
2022-08-24T22:01:26.953Z,2.70
2022-08-24T22:03:53.810Z,2.78
2022-08-24T22:06:20.444Z,4.35
2022-08-24T22:08:47.321Z,3.30
2022-08-24T22:11:16.378Z,2.67
2022-08-24T22:13:42.899Z,4.28
2022-08-24T22:16:11.638Z,2.90
2022-08-24T22:18:38.375Z,2.90
2022-08-24T22:21:13.387Z,2.80
2022-08-24T22:23:40.883Z,2.42
2022-08-24T22:26:08.226Z,2.90
2022-08-24T22:28:37.638Z,2.20
2022-08-24T22:31:14.985Z,3.42
2022-08-24T22:33:41.996Z,4.15
2022-08-24T22:36:13.103Z,3.28
2022-08-24T22:38:39.552Z,2.35
2022-08-24T22:41:06.995Z,3.17
2022-08-24T22:43:52.290Z,3.72
2022-08-24T22:46:19.990Z,3.90
2022-08-24T22:48:46.607Z,2.65
2022-08-24T22:51:13.138Z,4.68
2022-08-24T22:53:40.987Z,2.97
2022-08-24T22:56:18.652Z,4.13
2022-08-24T22:58:45.979Z,3.58
2022-08-24T23:01:23.927Z,3.35
2022-08-24T23:03:51.608Z,2.47
2022-08-24T23:06:18.938Z,2.63
2022-08-24T23:08:45.504Z,3.22
2022-08-24T23:11:13.528Z,3.78
2022-08-24T23:13:39.954Z,2.50
2022-08-24T23:16:08.790Z,3.58
2022-08-24T23:18:55.403Z,3.03
2022-08-24T23:21:22.035Z,2.78
2022-08-24T23:23:48.779Z,2.47
2022-08-24T23:26:18.870Z,3.05
2022-08-24T23:28:46.141Z,2.38
2022-08-24T23:31:19.745Z,2.70
2022-08-24T23:33:46.603Z,2.97
2022-08-24T23:36:20.908Z,3.92
2022-08-24T23:38:48.804Z,2.67
2022-08-24T23:41:18.176Z,3.17
2022-08-24T23:43:44.811Z,3.50
2022-08-24T23:46:12.179Z,2.88
2022-08-24T23:48:40.911Z,2.83
2022-08-24T23:51:09.114Z,2.72
2022-08-24T23:53:36.580Z,2.42
2022-08-24T23:56:13.502Z,3.35
2022-08-24T23:58:41.305Z,4.45
